createdAt,value
2023-04-03T00:01:39.664Z,1.80
2023-04-03T00:05:47.463Z,2.00
2023-04-03T00:09:55.156Z,1.90
2023-04-03T00:14:03.932Z,1.80
2023-04-03T00:18:12.429Z,1.30
2023-04-03T00:22:20.118Z,1.70
2023-04-03T00:26:27.909Z,1.70
2023-04-03T00:30:37.398Z,1.50
2023-04-03T00:34:46.342Z,2.20
2023-04-03T00:38:53.940Z,1.40
2023-04-03T00:43:02.771Z,1.70
2023-04-03T00:47:13.234Z,2.40
2023-04-03T00:51:25.583Z,2.40
2023-04-03T00:55:34.152Z,2.50
2023-04-03T00:59:45.850Z,2.10
2023-04-03T01:03:54.609Z,1.80
2023-04-03T01:08:02.966Z,1.50
2023-04-03T01:12:21.990Z,1.50
2023-04-03T01:16:31.519Z,1.40
2023-04-03T01:25:34.133Z,1.50
2023-04-03T01:29:44.613Z,1.50
2023-04-03T01:33:53.196Z,1.40
2023-04-03T01:38:00.726Z,1.30
2023-04-03T01:42:08.909Z,2.20
2023-04-03T01:46:16.777Z,1.60
2023-04-03T01:50:24.855Z,1.70
2023-04-03T01:54:32.731Z,2.20
2023-04-03T01:58:40.624Z,1.80
2023-04-03T02:02:48.455Z,1.90
2023-04-03T02:06:56.184Z,2.30
2023-04-03T02:11:03.775Z,1.30
2023-04-03T02:15:13.070Z,2.30
2023-04-03T02:19:20.897Z,2.20
2023-04-03T02:23:28.733Z,1.50
2023-04-03T02:27:36.591Z,1.50
2023-04-03T02:31:44.680Z,2.10
2023-04-03T02:35:56.895Z,1.60
2023-04-03T02:40:05.027Z,1.50
2023-04-03T02:44:14.186Z,1.80
2023-04-03T02:48:21.995Z,1.70
2023-04-03T02:52:29.917Z,1.60
2023-04-03T02:56:38.221Z,1.90
2023-04-03T03:00:45.935Z,1.90
2023-04-03T03:04:53.865Z,1.40
2023-04-03T03:09:01.451Z,2.00
2023-04-03T03:13:09.987Z,2.10
2023-04-03T03:17:17.693Z,2.00
2023-04-03T03:21:25.149Z,1.90
2023-04-03T03:25:33.355Z,1.40
2023-04-03T03:29:41.370Z,1.50
2023-04-03T03:33:49.043Z,1.60
2023-04-03T03:37:58.109Z,1.50
2023-04-03T03:42:05.817Z,1.50
2023-04-03T03:46:14.361Z,1.30
2023-04-03T03:50:22.485Z,1.60
2023-04-03T03:54:30.537Z,1.60
2023-04-03T03:58:39.662Z,1.50
2023-04-03T04:02:47.935Z,1.80
2023-04-03T04:06:55.987Z,1.60
2023-04-03T04:11:04.225Z,1.70
2023-04-03T04:15:13.828Z,1.80
2023-04-03T04:19:21.252Z,1.80
2023-04-03T04:23:28.585Z,1.90
2023-04-03T04:27:36.412Z,1.60
2023-04-03T04:31:43.995Z,2.20
2023-04-03T04:35:57.813Z,1.70
2023-04-03T04:40:14.056Z,1.80
2023-04-03T04:44:24.220Z,1.80
2023-04-03T04:48:34.151Z,1.60
2023-04-03T04:52:51.439Z,1.90
2023-04-03T04:56:58.723Z,1.90
2023-04-03T05:01:14.683Z,1.80
2023-04-03T05:05:24.225Z,1.90
2023-04-03T05:09:35.114Z,1.50
2023-04-03T05:13:47.090Z,1.40
2023-04-03T05:17:55.025Z,1.30
2023-04-03T05:22:03.894Z,1.90
2023-04-03T05:26:22.345Z,2.10
2023-04-03T05:30:30.372Z,1.60
2023-04-03T05:34:42.624Z,1.60
2023-04-03T05:38:57.701Z,1.70
2023-04-03T05:43:09.365Z,2.10
2023-04-03T05:47:20.853Z,1.90
2023-04-03T05:51:35.225Z,1.20
2023-04-03T05:55:43.182Z,1.90
2023-04-03T05:59:58.455Z,2.00
2023-04-03T06:04:10.315Z,2.00
2023-04-03T06:08:25.994Z,2.30
2023-04-03T06:12:36.282Z,1.90
2023-04-03T06:16:47.282Z,1.70
2023-04-03T06:20:59.236Z,1.60
2023-04-03T06:25:09.867Z,1.60
2023-04-03T06:29:18.015Z,2.00
2023-04-03T06:33:39.046Z,5.30
2023-04-03T06:37:58.999Z,2.30
2023-04-03T06:42:11.642Z,5.60
2023-04-03T06:46:22.294Z,3.90
2023-04-03T06:50:29.707Z,3.90
2023-04-03T06:54:39.823Z,3.00
2023-04-03T06:58:49.054Z,2.40
2023-04-03T07:02:58.446Z,2.20
2023-04-03T07:07:07.709Z,2.40
2023-04-03T07:11:21.305Z,2.80
2023-04-03T07:15:37.546Z,2.30
2023-04-03T07:19:50.127Z,2.00
2023-04-03T07:23:58.517Z,3.20
2023-04-03T07:28:06.273Z,2.00
2023-04-03T07:32:14.446Z,3.10
2023-04-03T07:36:24.061Z,2.60
2023-04-03T07:40:31.449Z,2.10
2023-04-03T07:44:38.882Z,2.10
2023-04-03T07:48:47.414Z,2.00
2023-04-03T07:52:58.907Z,1.90
2023-04-03T07:57:07.988Z,2.00
2023-04-03T08:01:15.337Z,1.60
2023-04-03T08:05:23.495Z,2.50
2023-04-03T08:09:31.610Z,2.20
2023-04-03T08:13:39.386Z,2.10
2023-04-03T08:17:48.313Z,2.30
2023-04-03T08:21:57.990Z,2.30
2023-04-03T08:26:11.646Z,2.70
2023-04-03T08:30:19.873Z,5.10
2023-04-03T08:34:27.383Z,2.00
2023-04-03T08:38:38.133Z,2.10
2023-04-03T08:42:54.233Z,4.60
2023-04-03T08:47:13.705Z,1.60
2023-04-03T08:51:23.729Z,2.10
2023-04-03T08:55:33.765Z,1.40
2023-04-03T08:59:44.047Z,2.00
2023-04-03T09:03:52.720Z,1.40
2023-04-03T09:08:06.500Z,1.80
2023-04-03T09:12:22.136Z,1.60
2023-04-03T09:16:45.795Z,1.60
2023-04-03T09:21:02.724Z,1.40
2023-04-03T09:25:16.561Z,1.30
2023-04-03T09:29:26.020Z,1.20
2023-04-03T09:33:34.660Z,1.40
2023-04-03T09:37:44.808Z,1.50
2023-04-03T09:42:04.487Z,1.40
2023-04-03T09:46:30.983Z,1.70
2023-04-03T09:50:41.349Z,1.20
2023-04-03T09:54:49.473Z,1.40
2023-04-03T09:59:15.952Z,1.30
2023-04-03T10:03:32.215Z,1.30
2023-04-03T10:07:46.537Z,1.50
2023-04-03T10:12:11.403Z,1.60
2023-04-03T10:16:22.599Z,1.30
2023-04-03T10:20:38.806Z,1.90
2023-04-03T10:24:53.188Z,1.50
2023-04-03T10:29:09.568Z,1.20
2023-04-03T10:33:30.015Z,1.70
2023-04-03T10:37:59.183Z,1.40
2023-04-03T10:42:17.246Z,1.30
2023-04-03T10:46:29.707Z,1.30
2023-04-03T10:50:45.590Z,1.60
2023-04-03T10:55:05.204Z,1.90
2023-04-03T10:59:23.513Z,2.10
2023-04-03T11:03:35.447Z,1.50
2023-04-03T11:07:45.619Z,2.00
2023-04-03T11:11:57.660Z,1.70
2023-04-03T11:16:09.724Z,1.80
2023-04-03T11:20:28.643Z,1.90
2023-04-03T11:24:41.407Z,1.80
2023-04-03T11:28:49.345Z,1.70
2023-04-03T11:33:11.661Z,1.60
2023-04-03T11:37:23.573Z,1.40
2023-04-03T11:41:33.139Z,1.70
2023-04-03T11:45:50.723Z,1.40
2023-04-03T11:50:05.045Z,1.50
2023-04-03T11:54:45.622Z,1.60
2023-04-03T11:59:25.761Z,1.40
2023-04-03T12:04:07.188Z,1.80
2023-04-03T12:08:28.731Z,1.60
2023-04-03T12:12:41.708Z,1.50
2023-04-03T12:16:52.474Z,2.00
2023-04-03T12:21:01.337Z,2.00
2023-04-03T12:25:51.027Z,1.80
2023-04-03T12:30:04.722Z,1.90
2023-04-03T12:34:23.936Z,2.00
2023-04-03T12:38:58.787Z,1.90
2023-04-03T12:43:25.797Z,1.90
2023-04-03T12:47:39.498Z,2.30
2023-04-03T12:51:48.984Z,2.10
2023-04-03T12:56:00.335Z,2.10
2023-04-03T13:00:36.688Z,1.90
2023-04-03T13:04:46.320Z,2.20
2023-04-03T13:08:58.417Z,1.90
2023-04-03T13:13:12.882Z,2.20
2023-04-03T13:17:21.377Z,2.10
2023-04-03T13:21:32.555Z,1.70
2023-04-03T13:25:43.019Z,2.00
2023-04-03T13:29:53.958Z,2.10
2023-04-03T13:34:07.424Z,2.30
2023-04-03T13:38:29.478Z,2.20
2023-04-03T13:42:41.673Z,2.30
2023-04-03T13:46:49.533Z,1.90
2023-04-03T13:51:02.019Z,2.40
2023-04-03T13:55:25.616Z,1.90
2023-04-03T13:59:39.164Z,2.20
2023-04-03T14:03:54.578Z,2.60
2023-04-03T14:08:03.210Z,2.20
2023-04-03T14:12:24.319Z,3.20
2023-04-03T14:16:46.345Z,2.40
2023-04-03T14:20:54.329Z,2.00
2023-04-03T14:25:03.176Z,2.60
2023-04-03T14:29:12.289Z,1.80
2023-04-03T14:33:22.440Z,2.40
2023-04-03T14:37:32.113Z,2.00
2023-04-03T14:41:39.902Z,2.50
2023-04-03T14:45:47.963Z,1.90
2023-04-03T14:49:55.956Z,2.10
2023-04-03T14:54:03.829Z,2.20
2023-04-03T14:58:13.650Z,2.40
2023-04-03T15:02:30.631Z,2.40
2023-04-03T15:06:39.269Z,2.80
2023-04-03T15:10:47.560Z,2.40
2023-04-03T15:15:01.737Z,2.30
2023-04-03T15:19:11.529Z,2.30
2023-04-03T15:23:20.173Z,2.80
2023-04-03T15:27:28.949Z,2.80
2023-04-03T15:31:37.085Z,2.80
2023-04-03T15:35:44.726Z,2.50
2023-04-03T15:39:52.381Z,2.50
2023-04-03T15:44:01.173Z,2.30
2023-04-03T15:48:09.551Z,2.60
2023-04-03T15:52:17.431Z,2.70
2023-04-03T15:56:25.398Z,2.00
2023-04-03T16:00:34.013Z,2.10
2023-04-03T16:04:41.789Z,2.20
2023-04-03T16:08:51.923Z,1.80
2023-04-03T16:12:59.805Z,2.40
2023-04-03T16:17:07.641Z,2.00
2023-04-03T16:21:16.402Z,2.30
2023-04-03T16:25:27.494Z,1.90
2023-04-03T16:29:36.251Z,2.20
2023-04-03T16:33:44.211Z,2.60
2023-04-03T16:37:52.608Z,2.10
2023-04-03T16:42:00.315Z,2.50
2023-04-03T16:46:08.056Z,2.20
2023-04-03T16:50:16.453Z,2.40
2023-04-03T16:54:24.562Z,2.10
2023-04-03T16:58:32.207Z,2.10
2023-04-03T17:02:41.239Z,2.30
2023-04-03T17:06:49.272Z,2.30
2023-04-03T17:10:57.218Z,2.80
2023-04-03T17:15:05.890Z,3.00
2023-04-03T17:19:14.600Z,3.20
2023-04-03T17:23:22.984Z,2.90
2023-04-03T17:27:31.774Z,3.10
2023-04-03T17:31:41.173Z,2.40
2023-04-03T17:35:49.020Z,2.40
2023-04-03T17:39:56.665Z,2.60
2023-04-03T17:44:04.602Z,2.80
2023-04-03T17:48:14.571Z,2.30
2023-04-03T17:52:25.479Z,2.60
2023-04-03T17:56:33.563Z,3.40
2023-04-03T18:00:41.659Z,3.10
2023-04-03T18:04:52.237Z,4.90
2023-04-03T18:09:07.239Z,4.10
2023-04-03T18:13:17.236Z,3.50
2023-04-03T18:17:27.149Z,3.30
2023-04-03T18:21:35.424Z,3.30
2023-04-03T18:25:43.350Z,2.60
2023-04-03T18:29:53.816Z,2.70
2023-04-03T18:34:03.235Z,4.40
2023-04-03T18:38:10.974Z,5.00
2023-04-03T18:42:20.285Z,4.40
2023-04-03T18:46:28.724Z,3.20
2023-04-03T18:50:37.737Z,4.00
2023-04-03T18:54:48.289Z,4.00
2023-04-03T18:58:56.441Z,4.40
2023-04-03T19:03:04.644Z,4.20
2023-04-03T19:07:12.986Z,3.60
2023-04-03T19:11:21.536Z,4.40
2023-04-03T19:15:29.866Z,4.30
2023-04-03T19:19:37.571Z,4.30
2023-04-03T19:23:48.781Z,7.10
2023-04-03T19:27:57.352Z,5.30
2023-04-03T19:32:04.763Z,6.70
2023-04-03T19:36:13.297Z,4.20
2023-04-03T19:40:22.117Z,2.70
2023-04-03T19:44:29.867Z,2.90
2023-04-03T19:48:38.937Z,3.30
2023-04-03T19:52:47.905Z,3.20
2023-04-03T19:56:58.143Z,2.80
2023-04-03T20:01:07.455Z,3.20
2023-04-03T20:05:15.057Z,3.10
2023-04-03T20:09:23.211Z,3.00
2023-04-03T20:13:31.775Z,3.60
2023-04-03T20:17:40.335Z,3.70
2023-04-03T20:21:48.527Z,4.60
2023-04-03T20:26:08.449Z,3.40
2023-04-03T20:30:18.130Z,4.10
2023-04-03T20:34:27.004Z,3.90
2023-04-03T20:38:34.709Z,3.90
2023-04-03T20:42:42.574Z,4.50
2023-04-03T20:46:53.285Z,4.00
2023-04-03T20:51:17.288Z,4.80
2023-04-03T20:55:25.401Z,5.00
2023-04-03T20:59:44.614Z,3.90
2023-04-03T21:04:08.790Z,3.70
2023-04-03T21:08:54.305Z,3.50
2023-04-03T21:13:49.212Z,2.80
2023-04-03T21:18:32.678Z,3.10
2023-04-03T21:22:43.774Z,3.20
2023-04-03T21:26:51.568Z,2.50
2023-04-03T21:30:59.246Z,2.60
2023-04-03T21:35:09.781Z,2.50
2023-04-03T21:39:18.353Z,2.00
2023-04-03T21:43:26.129Z,2.80
2023-04-03T21:47:35.817Z,2.80
2023-04-03T21:51:43.489Z,3.30
2023-04-03T21:56:02.970Z,2.90
2023-04-03T22:00:13.048Z,2.90
2023-04-03T22:04:21.807Z,3.20
2023-04-03T22:08:29.856Z,3.30
2023-04-03T22:12:37.565Z,2.80
2023-04-03T22:16:46.864Z,3.20
2023-04-03T22:20:55.238Z,3.20
2023-04-03T22:25:03.347Z,3.00
2023-04-03T22:29:10.824Z,2.80
2023-04-03T22:33:19.628Z,3.10
2023-04-03T22:37:29.320Z,3.40
2023-04-03T22:41:36.881Z,2.90
2023-04-03T22:45:51.499Z,2.60
2023-04-03T22:49:59.182Z,2.60
2023-04-03T22:54:07.343Z,2.40
2023-04-03T22:58:14.680Z,2.20
2023-04-03T23:02:21.895Z,2.70
2023-04-03T23:06:30.261Z,1.70
2023-04-03T23:10:38.330Z,2.50
2023-04-03T23:14:46.659Z,2.90
2023-04-03T23:18:54.140Z,2.70
2023-04-03T23:23:01.691Z,2.60
2023-04-03T23:27:09.114Z,2.60
2023-04-03T23:31:17.048Z,2.50
2023-04-03T23:35:24.882Z,2.40
2023-04-03T23:39:33.407Z,2.50
2023-04-03T23:43:43.986Z,2.30
2023-04-03T23:47:51.550Z,1.90
2023-04-03T23:51:59.576Z,2.50
2023-04-03T23:56:11.654Z,2.40
